This is the latest recevied weather packets stored in our database for station/object IA5KRO-13. If no packets are shown the sender has not sent any weather packets the latest 10 day(s).
| Time | Temp. | Humidity | Pressure | Rain* | Wind** | Luminosity | Snow |
|---|---|---|---|---|---|---|---|
| 1777986613 | 23.89° C | 67% | 1020 hPa | 0 mm | - | - | - |
| 1777986309 | 25° C | 62% | 1020 hPa | 0 mm | - | - | - |
| 1777986033 | 25° C | 64% | 1020 hPa | 0 mm | - | - | - |
| 1777985709 | 26.11° C | 62% | 1020 hPa | 0 mm | - | - | - |
| 1777985413 | 25° C | 63% | 1020 hPa | 0 mm | - | - | - |
| 1777985113 | 22.78° C | 68% | 1020 hPa | 0 mm | - | - | - |
| 1777984813 | 22.78° C | 70% | 1020 hPa | 0 mm | - | - | - |
| 1777984509 | 22.78° C | 70% | 1020 hPa | 0 mm | - | - | - |
| 1777984224 | 22.78° C | 68% | 1020 hPa | 0 mm | - | - | - |
| 1777983909 | 23.89° C | 66% | 1020 hPa | 0 mm | - | - | - |
| 1777983613 | 23.89° C | 67% | 1020 hPa | 0 mm | - | - | - |
| 1777983313 | 23.89° C | 67% | 1020 hPa | 0 mm | - | - | - |
| 1777983014 | 22.78° C | 69% | 1020 hPa | 0 mm | - | - | - |
| 1777982433 | 22.78° C | 69% | 1020 hPa | 0 mm | - | - | - |
| 1777982109 | 22.22° C | 71% | 1020 hPa | 0 mm | - | - | - |
| 1777981813 | 22.22° C | 71% | 1020 hPa | 0 mm | - | - | - |
| 1777981513 | 22.78° C | 69% | 1020.3 hPa | 0 mm | - | - | - |
| 1777981213 | 22.78° C | 67% | 1020.3 hPa | 0 mm | - | - | - |
| 1777980909 | 23.89° C | 66% | 1020.3 hPa | 0 mm | - | - | - |
| 1777980623 | 22.78° C | 66% | 1020.3 hPa | 0 mm | - | - | - |
| 1777980309 | 23.89° C | 66% | 1020.3 hPa | 0 mm | - | - | - |
| 1777980013 | 23.89° C | 66% | 1020.3 hPa | 0 mm | - | - | - |
| 1777979712 | 23.89° C | 66% | 1020.3 hPa | 0 mm | - | - | - |
| 1777979413 | 22.78° C | 66% | 1020.3 hPa | 0 mm | - | - | - |
| 1777979109 | 22.78° C | 67% | 1020.3 hPa | 0 mm | - | - | - |
* Rain latest hour (hover to see other rain measurements)
** Current wind speed in m/s (hover to see current wind gust speed)